Etusivu
METAR-TAF:

METAR-TAF

Lentoasemat :

Macas, Ecuador

Leveyspiiri: 02-17-57-S, Pituuspiiri: 078-07-15-W, korkeus merenpinnasta: 1052 m

Tämänhetkinen sää

Tämä raportti tehtiin 22 minuuttia sitten, kello 12.00 UTC
Tuuli 5 kn etelästä
Lämpötila 19°C
Kosteus 100%
Ilmanpaine 1019 hPa
Näkyvyys: 1000 m
Hajonneita pilviä 300 ft:n korkeudessa
Pilvistä 7000 ft:n korkeudessa
heikkoa sadetta, utua

METAR: SEMC 021200Z 18005KT 1000 -RA BR BKN003 OVC070 19/19 Q1019 RMK A3010

Aika: 07:22 (12:22 UTC)


TAF: puuttuu

Säähavainnot ja -ennusteet yli 4000 lentoasemalta (METAR- ja TAF-raportit).

Käytössä olevat sääasemat on merkitty karttaan keltaisilla ja punaisilla pisteillä.

Aseta hiiri pisteen päälle nähdäksesi sääaseman nimen.

Klikkaa sitten nähdäksesi säähavainnot ja -ennusteet.

Kartan vaihtaminen: klikkaa mustalla rastilla varustettuja vihreitä pisteitä, niin voit zoomata sisään; viivalla varustettua vihreää pistettä, niin voit zoomata ulos tai vihreitä nuolia, niin pääset viereisille kartoille.


METAR-TAF: